CARO2: North Fork Red, OK

Data processed at Wed May 22 2019 23:50


All information presented herein is the property of the government of the United States of America and may be revised or deleted at any time without prior notice.
Dissemination of this information without the expressed written consent of the Public Affairs Office, Tulsa District U.S. Army Corps of Engineers is strictly prohibited.
These data are gathered electronically and, as presented, have not undergone any form of quality control. These data are not guaranteed to be valid or correct.
Go to home page.
Go to station list.
Go to home page.

Upstream stations:

Downstream station:
Previous Day
Next Day
Current Day
    
SHEF ID:       CARO2     North Fork Red River near Carter
STATION TYPE:  
Regulating: Stage =    11.00, Flow =     1411

               PRECIP     STAGE  STAGE(2)  RIV-FLOW  BAT-LOAD
                   in        ft        ft       cfs      volt
              Ccp-Rev   Ccp-Rev   Ccp-Rev   Ccp-Rev   Ccp-Rev
(US/Central)
05/22 00:00      0.00     12.33     12.51      2105     12.65
05/22 01:00      0.00     12.39     12.60      2142     12.65
05/22 02:00      0.00     12.47     12.64      2192     12.65
05/22 03:00      0.00     12.34     12.61      2111     12.57
05/22 04:00      0.00     12.33     12.57      2105     12.57
05/22 05:00      0.00     12.26     12.50      2063     12.57
05/22 06:00      0.00     12.21     12.49      2032     12.57
05/22 07:00      0.00     12.16     12.51      2002     12.57
05/22 08:00      0.00     12.17     12.47      2008     12.65
05/22 09:00      0.00     12.20     12.41      2026     13.21
05/22 10:00      0.00     12.20     12.36      2026     13.21
05/22 11:00      0.00     12.07     12.24      1952     13.44
05/22 12:00      0.00     11.95     12.11      1887     13.53
05/22 13:00      0.00     11.83     11.95      1823     14.00
05/22 14:00      0.00     11.69     11.77      1750     14.00
05/22 15:00      0.00     11.43     11.57      1617     14.00
05/22 16:00      0.00     11.23     11.42      1519     13.68
05/22 17:00      0.00     11.10     11.23      1457     13.37
05/22 18:00      0.00     10.95     11.09      1387     13.29
05/22 19:00      0.00     10.86     10.97      1346     13.29
05/22 20:00      0.00     10.75     10.84      1297     13.13
05/22 21:00      0.00     10.64     10.73      1249     12.73
05/22 22:00      0.00     10.51     10.60      1193     12.65
05/22 23:00      0.00     10.42     10.52      1155     12.65